Time;durP1;ratioP1;P1;durP2;ratioP2;P2;SDS_P1;SDS_P2;PMS_P1;PMS_P2;Temp;Humidity;BMP_temperature;BMP_pressure;BME280_temperature;BME280_humidity;BME280_pressure;Samples;Min_cycle;Max_cycle;Signal;HPM_P1;HPM_P2
2023/01/12 00:01:22;;;;;;;11.57;2.35;;;7.00;96.50;;;;;;5025873;28;20140;-73
2023/01/12 00:03:49;;;;;;;14.45;3.05;;;7.10;96.10;;;;;;5024521;28;20038;-73
2023/01/12 00:06:15;;;;;;;17.08;2.83;;;7.10;95.90;;;;;;5014540;28;20510;-73
2023/01/12 00:08:40;;;;;;;14.35;2.95;;;7.10;95.80;;;;;;5022423;28;20036;-72
2023/01/12 00:11:06;;;;;;;12.77;2.90;;;7.20;95.40;;;;;;5024078;28;20037;-73
2023/01/12 00:13:33;;;;;;;11.10;2.55;;;7.10;95.40;;;;;;5029599;28;20029;-72
2023/01/12 00:18:44;;;;;;;10.48;2.17;;;7.10;95.60;;;;;;5023770;28;20095;-73
2023/01/12 00:21:10;;;;;;;16.25;2.92;;;7.10;95.80;;;;;;5030431;28;20778;-73
2023/01/12 00:23:35;;;;;;;12.32;2.92;;;7.10;96.00;;;;;;5027365;28;20039;-72
2023/01/12 00:26:01;;;;;;;11.88;2.78;;;7.10;96.10;;;;;;5030399;28;20466;-72
2023/01/12 00:28:27;;;;;;;17.45;2.90;;;7.00;96.10;;;;;;5031476;28;20395;-72
2023/01/12 00:30:52;;;;;;;12.15;2.72;;;7.00;96.20;;;;;;5032699;28;20128;-73
2023/01/12 00:33:18;;;;;;;9.88;2.70;;;7.10;96.10;;;;;;5024552;28;20186;-72
2023/01/12 00:35:44;;;;;;;11.25;2.55;;;7.10;96.00;;;;;;5029015;28;20091;-73
2023/01/12 00:38:10;;;;;;;11.07;2.83;;;7.10;95.90;;;;;;5031048;28;20478;-73
2023/01/12 00:40:35;;;;;;;12.27;2.58;;;7.00;96.00;;;;;;5032555;28;20065;-73
2023/01/12 00:45:51;;;;;;;14.38;2.90;;;7.20;95.50;;;;;;5029288;28;20543;-73
2023/01/12 00:48:17;;;;;;;16.08;2.85;;;7.20;95.40;;;;;;5026681;28;20045;-73
2023/01/12 00:50:42;;;;;;;11.45;2.53;;;7.20;95.30;;;;;;5033314;28;20021;-72
2023/01/12 00:53:08;;;;;;;9.43;2.42;;;7.30;95.20;;;;;;5029592;28;20363;-72
2023/01/12 00:55:33;;;;;;;11.27;2.67;;;7.30;94.90;;;;;;5032102;28;20060;-73
2023/01/12 00:57:59;;;;;;;11.10;2.08;;;7.30;94.50;;;;;;5029860;28;20541;-73
2023/01/12 01:00:24;;;;;;;9.50;2.13;;;7.40;94.30;;;;;;5027976;28;20032;-73
2023/01/12 01:02:50;;;;;;;8.85;2.25;;;7.30;94.60;;;;;;5024425;28;20041;-72
2023/01/12 01:05:16;;;;;;;6.75;1.80;;;7.40;94.10;;;;;;5030841;28;20040;-73
2023/01/12 01:07:42;;;;;;;9.07;2.33;;;7.40;94.40;;;;;;5031815;28;20355;-73
2023/01/12 01:10:09;;;;;;;10.25;2.20;;;7.30;94.30;;;;;;5031585;28;20022;-72
2023/01/12 01:12:35;;;;;;;13.20;2.33;;;7.40;94.20;;;;;;5032011;28;20045;-73
2023/01/12 01:15:00;;;;;;;12.02;2.50;;;7.40;94.20;;;;;;5025103;28;20079;-72
2023/01/12 01:17:27;;;;;;;8.77;2.30;;;7.40;94.10;;;;;;5031418;28;20036;-73
2023/01/12 01:19:53;;;;;;;6.60;1.80;;;7.40;93.80;;;;;;5028920;28;20087;-74
2023/01/12 01:22:19;;;;;;;10.00;1.98;;;7.50;93.60;;;;;;5027189;28;20045;-72
2023/01/12 01:24:45;;;;;;;10.88;2.83;;;7.60;93.20;;;;;;5023686;28;20026;-72
2023/01/12 01:27:11;;;;;;;10.23;1.80;;;7.60;93.40;;;;;;5031292;28;20472;-72
2023/01/12 01:29:36;;;;;;;5.85;1.80;;;7.60;93.50;;;;;;5030305;28;20088;-73
2023/01/12 01:32:02;;;;;;;4.72;1.60;;;7.70;93.30;;;;;;5032477;28;20347;-73
2023/01/12 01:34:28;;;;;;;9.23;2.45;;;7.60;93.40;;;;;;5030639;28;20171;-73
2023/01/12 01:36:53;;;;;;;8.45;2.03;;;7.70;93.40;;;;;;5030281;28;20103;-72
2023/01/12 01:39:18;;;;;;;7.72;1.92;;;7.60;93.70;;;;;;5028349;28;20022;-73
2023/01/12 01:41:44;;;;;;;8.50;2.30;;;7.60;93.70;;;;;;5027075;28;20030;-72
2023/01/12 01:44:28;;;;;;;9.32;2.00;;;7.60;93.90;;;;;;5031633;28;20045;-72
2023/01/12 01:47:05;;;;;;;7.28;1.83;;;7.50;94.20;;;;;;5024424;28;20060;-73
2023/01/12 01:49:45;;;;;;;10.70;2.00;;;7.60;94.00;;;;;;5027064;28;20052;-72
2023/01/12 01:52:35;;;;;;;9.73;2.35;;;7.60;94.00;;;;;;5029561;28;20040;-73
2023/01/12 01:55:05;;;;;;;16.02;2.90;;;7.50;94.30;;;;;;5025419;28;20026;-72
2023/01/12 01:57:45;;;;;;;12.98;2.53;;;7.50;94.90;;;;;;5024517;28;20516;-72
2023/01/12 02:00:12;;;;;;;10.07;2.60;;;7.50;95.10;;;;;;5037213;28;20040;-75
2023/01/12 02:02:38;;;;;;;9.80;2.45;;;7.40;95.40;;;;;;5028984;28;20037;-72
2023/01/12 02:05:04;;;;;;;6.25;2.10;;;7.30;95.60;;;;;;5026689;28;20046;-72
2023/01/12 02:07:31;;;;;;;8.15;2.33;;;7.30;95.60;;;;;;5028645;28;20109;-72
2023/01/12 02:09:56;;;;;;;13.55;2.38;;;7.40;95.80;;;;;;5029181;28;20025;-72
2023/01/12 02:18:21;;;;;;;9.65;2.38;;;7.20;96.10;;;;;;5020663;28;20401;-72
2023/01/12 02:20:59;;;;;;;9.80;2.13;;;7.20;95.80;;;;;;5029226;28;20080;-73
2023/01/12 02:23:59;;;;;;;8.50;1.95;;;7.20;96.00;;;;;;5028975;28;20124;-73
2023/01/12 02:27:02;;;;;;;11.45;2.05;;;7.30;95.50;;;;;;5029174;28;20433;-72
2023/01/12 02:30:10;;;;;;;5.47;1.75;;;7.30;95.60;;;;;;5029396;28;20061;-73
2023/01/12 02:32:42;;;;;;;8.95;2.10;;;7.30;95.50;;;;;;5029094;28;20425;-73
2023/01/12 02:35:27;;;;;;;9.02;1.63;;;7.30;95.40;;;;;;5024771;28;20034;-73
2023/01/12 02:38:11;;;;;;;7.22;1.88;;;7.30;95.60;;;;;;5026118;28;20111;-73
2023/01/12 02:40:53;;;;;;;3.88;1.45;;;7.20;95.90;;;;;;5028143;28;20057;-73
2023/01/12 02:43:31;;;;;;;8.05;1.20;;;7.20;95.80;;;;;;5030530;28;20033;-74
2023/01/12 02:46:24;;;;;;;7.47;1.10;;;7.10;95.80;;;;;;5012228;28;20038;-73
2023/01/12 02:48:56;;;;;;;4.15;1.25;;;7.00;95.60;;;;;;5023222;28;20113;-73
2023/01/12 02:51:28;;;;;;;5.30;1.13;;;7.00;95.80;;;;;;5030668;28;20033;-73
2023/01/12 02:54:15;;;;;;;2.40;1.10;;;6.80;96.00;;;;;;5025470;28;20051;-73
2023/01/12 02:56:47;;;;;;;7.78;1.77;;;6.80;96.50;;;;;;5022433;28;20045;-73
2023/01/12 02:59:25;;;;;;;10.45;1.63;;;6.70;96.70;;;;;;5023668;28;20095;-74
2023/01/12 03:01:56;;;;;;;4.63;1.23;;;6.60;96.80;;;;;;5024118;28;20044;-73
2023/01/12 03:04:23;;;;;;;7.45;2.00;;;6.60;96.90;;;;;;5027772;28;20061;-73
2023/01/12 03:06:57;;;;;;;6.13;1.75;;;6.60;97.10;;;;;;5023943;28;20032;-73
2023/01/12 03:09:46;;;;;;;4.00;1.73;;;6.60;97.30;;;;;;5029012;28;20458;-74
2023/01/12 03:12:23;;;;;;;7.00;1.98;;;6.60;97.40;;;;;;5022353;28;20053;-73
2023/01/12 03:14:52;;;;;;;9.20;2.42;;;6.60;97.70;;;;;;5025236;28;20037;-73
2023/01/12 03:17:31;;;;;;;8.35;2.38;;;6.70;97.80;;;;;;5030405;28;20041;-73
2023/01/12 03:20:11;;;;;;;7.90;2.25;;;6.70;97.80;;;;;;5028595;28;20126;-73
2023/01/12 03:22:37;;;;;;;6.75;2.35;;;6.70;97.80;;;;;;5026558;28;20053;-73
2023/01/12 03:25:09;;;;;;;10.05;3.10;;;6.70;98.00;;;;;;5030457;28;20041;-73
2023/01/12 03:27:39;;;;;;;10.05;2.45;;;6.80;98.00;;;;;;5026531;28;20022;-73
2023/01/12 03:30:11;;;;;;;8.00;2.58;;;6.80;98.00;;;;;;5029043;28;20053;-73
2023/01/12 03:32:37;;;;;;;14.35;3.00;;;6.90;97.80;;;;;;5025677;28;20052;-73
2023/01/12 03:35:04;;;;;;;8.35;2.90;;;6.80;97.60;;;;;;5024178;28;20033;-73
2023/01/12 03:37:31;;;;;;;11.25;2.95;;;6.90;97.80;;;;;;5026733;28;20040;-73
2023/01/12 03:40:01;;;;;;;13.05;2.63;;;7.00;97.60;;;;;;5028789;28;20029;-73
2023/01/12 03:42:36;;;;;;;10.35;2.20;;;7.00;97.50;;;;;;5028667;28;20042;-73
2023/01/12 03:45:32;;;;;;;18.67;3.00;;;7.00;97.10;;;;;;5022625;28;20029;-74
2023/01/12 03:48:19;;;;;;;11.75;2.20;;;7.00;97.20;;;;;;5029375;28;20132;-73
2023/01/12 03:50:59;;;;;;;10.55;2.25;;;7.10;97.20;;;;;;5028096;28;20517;-73
2023/01/12 03:53:25;;;;;;;12.57;2.28;;;7.10;97.00;;;;;;5028978;28;20493;-74
2023/01/12 03:55:54;;;;;;;10.15;2.20;;;7.20;96.70;;;;;;5031570;28;20026;-73
2023/01/12 03:58:21;;;;;;;10.18;2.05;;;7.10;96.60;;;;;;5030518;28;20065;-73
2023/01/12 04:00:47;;;;;;;6.28;1.73;;;7.10;96.60;;;;;;5021369;28;20033;-73
2023/01/12 04:03:14;;;;;;;8.32;2.10;;;7.10;96.60;;;;;;5028976;28;20445;-73
2023/01/12 04:05:41;;;;;;;8.65;2.03;;;7.20;96.40;;;;;;5033306;28;20443;-73
2023/01/12 04:08:07;;;;;;;5.32;1.50;;;7.20;96.40;;;;;;5032430;28;20049;-73
2023/01/12 04:10:33;;;;;;;6.20;2.00;;;7.10;96.40;;;;;;5028332;28;20545;-73
2023/01/12 04:12:59;;;;;;;7.35;1.67;;;7.30;96.20;;;;;;5031035;28;20116;-73
2023/01/12 04:15:24;;;;;;;7.13;2.28;;;7.20;96.00;;;;;;5031238;28;20044;-73
2023/01/12 04:17:50;;;;;;;8.35;2.00;;;7.30;95.90;;;;;;5032042;28;20102;-73
2023/01/12 04:20:16;;;;;;;9.45;1.85;;;7.30;95.70;;;;;;5030549;28;20478;-74
2023/01/12 04:22:43;;;;;;;7.18;1.88;;;7.30;95.80;;;;;;5028628;28;20041;-74
2023/01/12 04:25:20;;;;;;;8.07;2.28;;;7.30;96.00;;;;;;5025768;28;20037;-75
2023/01/12 04:27:48;;;;;;;7.72;2.45;;;7.40;95.80;;;;;;5023738;28;20034;-74
2023/01/12 04:30:17;;;;;;;10.27;2.22;;;7.40;95.70;;;;;;5023837;28;20171;-73
2023/01/12 04:32:44;;;;;;;8.95;1.92;;;7.50;95.50;;;;;;5031265;28;20045;-73
2023/01/12 04:35:13;;;;;;;5.35;1.75;;;7.50;95.20;;;;;;5027137;28;20458;-73
2023/01/12 04:37:39;;;;;;;8.93;1.95;;;7.50;95.50;;;;;;5030316;28;20036;-73
2023/01/12 04:40:07;;;;;;;5.30;1.52;;;7.50;95.40;;;;;;5032714;28;20037;-73
2023/01/12 04:45:17;;;;;;;9.02;1.90;;;7.50;95.50;;;;;;5031635;28;20036;-73
2023/01/12 04:47:42;;;;;;;9.32;2.10;;;7.50;95.80;;;;;;5034872;28;20025;-73
2023/01/12 04:50:09;;;;;;;10.25;2.03;;;7.50;96.10;;;;;;5023106;28;20462;-73
2023/01/12 04:52:35;;;;;;;3.83;1.65;;;7.50;96.70;;;;;;5031908;28;20110;-73
2023/01/12 04:55:01;;;;;;;6.43;1.73;;;7.40;97.20;;;;;;5024665;28;20034;-74
2023/01/12 04:57:26;;;;;;;8.38;2.13;;;7.30;97.60;;;;;;5023184;28;20489;-73
2023/01/12 04:59:52;;;;;;;10.43;2.30;;;7.20;98.00;;;;;;5019888;28;20467;-76
2023/01/12 05:02:17;;;;;;;6.65;2.35;;;7.30;98.20;;;;;;5027335;28;20052;-73
2023/01/12 05:04:45;;;;;;;8.43;2.10;;;7.20;98.40;;;;;;5024294;28;20033;-73
2023/01/12 05:07:11;;;;;;;7.32;2.92;;;7.20;98.60;;;;;;5026387;28;20052;-73
2023/01/12 05:12:21;;;;;;;9.98;3.40;;;7.30;98.50;;;;;;5025565;28;20509;-73
2023/01/12 05:14:48;;;;;;;6.88;2.97;;;7.30;98.50;;;;;;5032316;28;20026;-73
2023/01/12 05:17:13;;;;;;;9.40;3.20;;;7.30;98.70;;;;;;5029305;28;20029;-74
2023/01/12 05:19:39;;;;;;;11.02;4.13;;;7.30;98.70;;;;;;5030883;28;20385;-73
2023/01/12 05:22:04;;;;;;;12.75;3.63;;;7.30;98.80;;;;;;5029329;28;20054;-73
2023/01/12 05:24:30;;;;;;;9.82;3.83;;;7.20;98.90;;;;;;5021929;28;20029;-74
2023/01/12 05:26:55;;;;;;;8.93;3.42;;;7.20;99.00;;;;;;5029859;28;20108;-72
2023/01/12 05:29:21;;;;;;;11.73;3.45;;;7.30;99.10;;;;;;5022766;28;20457;-72
2023/01/12 05:31:46;;;;;;;10.90;3.97;;;7.20;99.10;;;;;;5027083;28;20107;-73
2023/01/12 05:34:12;;;;;;;8.45;3.97;;;7.20;99.30;;;;;;5026659;28;20025;-74
2023/01/12 05:36:38;;;;;;;6.43;3.90;;;7.20;99.40;;;;;;5029655;28;20030;-74
2023/01/12 05:39:04;;;;;;;10.02;4.40;;;7.20;99.50;;;;;;5028197;28;20390;-74
2023/01/12 05:41:29;;;;;;;8.35;3.92;;;7.20;99.50;;;;;;5028704;28;20033;-73
2023/01/12 05:43:55;;;;;;;9.27;5.07;;;7.20;99.60;;;;;;5027721;28;20033;-74
2023/01/12 05:46:22;;;;;;;14.68;4.60;;;7.20;99.60;;;;;;5029822;28;20025;-74
2023/01/12 05:48:48;;;;;;;11.13;4.40;;;7.20;99.80;;;;;;5026561;28;20489;-73
2023/01/12 05:51:14;;;;;;;9.65;4.78;;;7.20;99.70;;;;;;5029174;28;20034;-73
2023/01/12 05:53:40;;;;;;;8.98;4.72;;;7.20;99.80;;;;;;5023271;28;20030;-74
2023/01/12 05:56:15;;;;;;;13.63;5.15;;;7.20;99.90;;;;;;5029413;28;20116;-74
2023/01/12 05:58:41;;;;;;;16.85;5.15;;;7.20;99.90;;;;;;5029100;28;20034;-74
2023/01/12 06:01:08;;;;;;;13.85;4.78;;;7.20;99.90;;;;;;5029931;28;20044;-73
2023/01/12 06:03:34;;;;;;;11.05;5.35;;;7.20;99.90;;;;;;5018407;28;20045;-74
2023/01/12 06:05:59;;;;;;;11.02;4.97;;;7.20;99.90;;;;;;5024080;28;20030;-77
2023/01/12 06:08:25;;;;;;;13.68;5.28;;;7.30;99.90;;;;;;5019553;28;20445;-77
2023/01/12 06:10:51;;;;;;;9.85;5.82;;;7.20;99.90;;;;;;5025097;28;20529;-77
2023/01/12 06:16:04;;;;;;;12.13;5.25;;;7.30;99.90;;;;;;5029558;28;20488;-76
2023/01/12 06:18:36;;;;;;;10.27;5.25;;;7.30;99.90;;;;;;5020634;28;20064;-77
2023/01/12 06:21:02;;;;;;;11.02;5.30;;;7.30;99.90;;;;;;5029284;28;20126;-77
2023/01/12 06:23:28;;;;;;;13.32;5.05;;;7.40;99.90;;;;;;5028243;28;20042;-77
2023/01/12 06:25:54;;;;;;;10.73;5.10;;;7.40;99.80;;;;;;5029327;28;20034;-76
2023/01/12 06:28:20;;;;;;;10.40;6.20;;;7.30;99.80;;;;;;5026572;28;20041;-77
2023/01/12 06:30:57;;;;;;;14.80;5.70;;;7.40;99.80;;;;;;5027527;28;20152;-74
2023/01/12 06:33:23;;;;;;;12.98;5.50;;;7.40;99.80;;;;;;5021614;28;20128;-74
2023/01/12 06:35:49;;;;;;;14.52;6.22;;;7.30;99.80;;;;;;5025972;28;20022;-74
2023/01/12 06:38:14;;;;;;;13.65;6.20;;;7.30;99.90;;;;;;5023309;28;20103;-74
2023/01/12 06:40:40;;;;;;;8.20;6.03;;;7.30;99.90;;;;;;5020142;28;20030;-74
2023/01/12 06:43:05;;;;;;;14.50;6.10;;;7.40;99.90;;;;;;5029444;28;20486;-75
2023/01/12 06:45:31;;;;;;;10.77;5.60;;;7.40;99.90;;;;;;5028954;28;20036;-75
2023/01/12 06:47:57;;;;;;;11.60;6.00;;;7.30;99.90;;;;;;5023175;28;20030;-75
2023/01/12 06:50:23;;;;;;;8.93;5.07;;;7.40;99.90;;;;;;5015191;28;20500;-75
2023/01/12 06:52:49;;;;;;;10.82;4.88;;;7.40;99.90;;;;;;5020859;28;20030;-75
2023/01/12 06:55:14;;;;;;;11.65;5.43;;;7.40;99.90;;;;;;5027074;28;20112;-75
2023/01/12 06:57:40;;;;;;;12.35;5.55;;;7.40;99.80;;;;;;5030894;28;20076;-74
2023/01/12 07:00:07;;;;;;;10.98;5.30;;;7.40;99.90;;;;;;5028403;28;20037;-75
2023/01/12 07:02:33;;;;;;;14.65;5.32;;;7.40;99.80;;;;;;5026827;28;20039;-75
2023/01/12 07:04:58;;;;;;;14.00;4.95;;;7.40;99.80;;;;;;5029389;28;20092;-75
2023/01/12 07:07:23;;;;;;;10.98;4.90;;;7.50;99.90;;;;;;5029021;28;20029;-75
2023/01/12 07:09:49;;;;;;;14.48;5.72;;;7.40;99.90;;;;;;5027765;28;20370;-75
2023/01/12 07:12:14;;;;;;;10.77;5.57;;;7.50;99.90;;;;;;5024454;28;20025;-75
2023/01/12 07:14:40;;;;;;;12.15;5.40;;;7.40;99.90;;;;;;5028568;28;20025;-75
2023/01/12 07:17:05;;;;;;;10.82;4.90;;;7.50;99.90;;;;;;5031796;28;20029;-75
2023/01/12 07:19:31;;;;;;;11.95;5.30;;;7.50;99.90;;;;;;5026641;28;20454;-75
2023/01/12 07:21:56;;;;;;;9.45;5.18;;;7.50;99.90;;;;;;5029459;28;20053;-75
2023/01/12 07:24:22;;;;;;;9.80;4.50;;;7.50;99.80;;;;;;5028720;28;20404;-75
2023/01/12 07:26:48;;;;;;;11.07;4.00;;;7.50;99.70;;;;;;5032072;28;20057;-75
2023/01/12 07:29:15;;;;;;;12.32;4.53;;;7.50;99.70;;;;;;5034246;28;20037;-75
2023/01/12 07:31:40;;;;;;;11.38;4.30;;;7.60;99.50;;;;;;5034750;28;20105;-75
2023/01/12 07:34:06;;;;;;;10.55;4.15;;;7.50;99.50;;;;;;5033012;28;20108;-75
2023/01/12 07:36:31;;;;;;;9.95;3.40;;;7.50;99.60;;;;;;5029284;28;20029;-75
2023/01/12 07:38:57;;;;;;;6.15;2.83;;;7.50;99.70;;;;;;5032317;28;20474;-75
2023/01/12 07:44:07;;;;;;;7.30;1.70;;;7.60;98.90;;;;;;5024944;28;20552;-75
2023/01/12 07:46:33;;;;;;;6.63;2.15;;;7.70;97.90;;;;;;5030952;28;20045;-75
2023/01/12 07:48:59;;;;;;;6.60;2.40;;;7.60;98.10;;;;;;5033687;28;20521;-75
2023/01/12 07:51:24;;;;;;;5.53;1.90;;;7.60;98.30;;;;;;5030477;28;21231;-75
2023/01/12 07:53:50;;;;;;;7.18;1.88;;;7.60;98.30;;;;;;5033422;28;20454;-75
2023/01/12 07:56:15;;;;;;;2.65;1.67;;;7.50;98.70;;;;;;5032477;28;20037;-76
2023/01/12 07:58:48;;;;;;;4.22;1.35;;;7.40;98.80;;;;;;5032824;28;20037;-75
2023/01/12 08:01:14;;;;;;;3.83;1.60;;;7.40;98.70;;;;;;5028589;28;20022;-75
2023/01/12 08:03:39;;;;;;;5.18;1.38;;;7.40;98.60;;;;;;5034186;28;20033;-76
2023/01/12 08:06:05;;;;;;;2.45;1.00;;;7.40;98.30;;;;;;5032458;28;20025;-76
2023/01/12 08:08:31;;;;;;;4.50;1.20;;;7.40;98.40;;;;;;5032289;28;20029;-76
2023/01/12 08:11:07;;;;;;;5.47;1.40;;;7.50;98.20;;;;;;5032279;28;20134;-76
2023/01/12 08:13:33;;;;;;;6.97;1.50;;;7.40;98.60;;;;;;5033310;28;20570;-76
2023/01/12 08:16:05;;;;;;;5.60;1.63;;;7.40;98.90;;;;;;5030641;28;20029;-75
2023/01/12 08:18:37;;;;;;;8.75;1.50;;;7.40;99.00;;;;;;5031006;28;20042;-75
2023/01/12 08:21:08;;;;;;;4.55;1.45;;;7.40;99.20;;;;;;5030378;28;20026;-75
2023/01/12 08:23:46;;;;;;;2.50;1.20;;;7.40;99.30;;;;;;5030008;28;20038;-75
2023/01/12 08:26:16;;;;;;;5.15;1.45;;;7.40;99.30;;;;;;5032514;28;20022;-75
2023/01/12 08:29:10;;;;;;;6.00;1.42;;;7.40;99.30;;;;;;5029838;28;20032;-75
2023/01/12 08:31:36;;;;;;;2.13;1.15;;;7.40;98.90;;;;;;5039246;28;20144;-75
2023/01/12 08:34:02;;;;;;;5.18;1.27;;;7.40;98.90;;;;;;5027327;28;20037;-74
2023/01/12 08:36:29;;;;;;;1.90;0.90;;;7.40;99.00;;;;;;5027813;28;20021;-75
2023/01/12 08:38:55;;;;;;;2.30;0.93;;;7.40;99.00;;;;;;5023336;28;20033;-75
2023/01/12 08:41:33;;;;;;;4.30;1.08;;;7.40;99.10;;;;;;5032768;28;20025;-74
2023/01/12 08:44:09;;;;;;;2.15;1.13;;;7.40;99.30;;;;;;5032738;28;20045;-74
2023/01/12 08:46:36;;;;;;;3.03;0.90;;;7.40;99.30;;;;;;5029248;28;20022;-75
2023/01/12 08:49:06;;;;;;;2.63;1.02;;;7.40;99.60;;;;;;5027757;28;20044;-75
2023/01/12 08:51:32;;;;;;;4.13;0.75;;;7.30;99.60;;;;;;5028697;28;20600;-75
2023/01/12 08:53:58;;;;;;;1.85;0.90;;;7.40;99.50;;;;;;5032425;28;20036;-74
2023/01/12 08:56:24;;;;;;;3.20;1.05;;;7.40;99.60;;;;;;5030265;28;20358;-75
2023/01/12 08:58:49;;;;;;;3.75;1.05;;;7.40;99.60;;;;;;5026418;28;20029;-75
2023/01/12 09:01:15;;;;;;;1.05;0.80;;;7.30;99.70;;;;;;5024424;28;20091;-75
2023/01/12 09:03:43;;;;;;;1.60;0.77;;;7.40;99.80;;;;;;5032747;28;20079;-75
2023/01/12 09:06:10;;;;;;;3.47;0.93;;;7.40;99.80;;;;;;5030303;28;20029;-75
2023/01/12 09:08:36;;;;;;;3.08;0.90;;;7.50;99.80;;;;;;5028775;28;20029;-75
2023/01/12 09:11:02;;;;;;;1.00;0.90;;;7.50;99.80;;;;;;5030136;28;20030;-75
2023/01/12 09:13:28;;;;;;;3.20;0.80;;;7.50;99.90;;;;;;5032206;28;20033;-75
2023/01/12 09:15:53;;;;;;;2.03;1.10;;;7.50;99.80;;;;;;5032065;28;20047;-75
2023/01/12 09:18:19;;;;;;;3.35;1.13;;;7.60;99.70;;;;;;5031474;28;20346;-75
2023/01/12 09:20:44;;;;;;;1.25;0.93;;;7.50;99.80;;;;;;5028145;28;20056;-74
2023/01/12 09:23:10;;;;;;;1.77;1.00;;;7.60;99.80;;;;;;5029834;28;20052;-75
2023/01/12 09:25:35;;;;;;;3.42;1.00;;;7.60;99.80;;;;;;5033681;28;20033;-75
2023/01/12 09:28:01;;;;;;;1.52;0.90;;;7.60;99.90;;;;;;5035413;28;20398;-74
2023/01/12 09:30:26;;;;;;;2.47;1.10;;;7.70;99.90;;;;;;5033189;28;20060;-75
2023/01/12 09:32:54;;;;;;;2.63;1.13;;;7.70;99.80;;;;;;5030804;28;20029;-75
2023/01/12 09:35:20;;;;;;;2.25;0.98;;;7.70;99.80;;;;;;5026595;28;20030;-74
2023/01/12 09:37:46;;;;;;;3.88;1.20;;;7.80;99.90;;;;;;5027053;28;20129;-75
2023/01/12 09:40:15;;;;;;;3.60;1.20;;;7.80;99.90;;;;;;5031979;28;20100;-75
2023/01/12 09:48:20;;;;;;;3.08;1.23;;;7.90;99.90;;;;;;5029866;28;20099;-75
2023/01/12 09:51:04;;;;;;;4.68;0.95;;;8.00;99.90;;;;;;5027797;28;20413;-75
2023/01/12 09:53:33;;;;;;;2.83;1.30;;;8.00;99.90;;;;;;5026429;28;20026;-74
2023/01/12 09:56:22;;;;;;;1.45;1.20;;;8.00;99.90;;;;;;5020734;28;20029;-75
2023/01/12 09:59:15;;;;;;;2.40;1.48;;;8.00;99.90;;;;;;5023086;28;20320;-75
2023/01/12 10:01:41;;;;;;;2.15;1.35;;;8.00;99.90;;;;;;5031373;28;20025;-75
2023/01/12 10:04:06;;;;;;;1.90;1.30;;;8.10;99.90;;;;;;5026312;28;20034;-75
2023/01/12 10:06:33;;;;;;;4.43;1.55;;;8.10;99.90;;;;;;5025864;28;20033;-75
2023/01/12 10:09:12;;;;;;;4.78;1.23;;;8.10;99.90;;;;;;5030486;28;20076;-75
2023/01/12 10:11:48;;;;;;;2.20;1.25;;;8.10;99.90;;;;;;5029757;28;20021;-75
2023/01/12 10:14:33;;;;;;;1.88;1.13;;;8.10;99.90;;;;;;5027245;28;20596;-75
2023/01/12 10:17:29;;;;;;;1.90;1.23;;;8.10;99.90;;;;;;5027679;28;20018;-75
2023/01/12 10:20:06;;;;;;;4.00;1.40;;;8.20;99.90;;;;;;5022376;28;20049;-75
2023/01/12 10:22:53;;;;;;;5.82;1.40;;;8.20;99.90;;;;;;5026079;28;20045;-74
2023/01/12 10:25:36;;;;;;;2.20;1.30;;;8.20;99.90;;;;;;5032028;28;20026;-75
2023/01/12 10:28:20;;;;;;;3.35;1.30;;;8.20;99.90;;;;;;5024262;28;20026;-74
2023/01/12 10:30:45;;;;;;;3.63;1.33;;;8.30;99.90;;;;;;5021136;28;20018;-74
2023/01/12 10:33:14;;;;;;;3.22;1.30;;;8.30;99.90;;;;;;5023092;28;20081;-75
2023/01/12 10:36:02;;;;;;;2.70;1.25;;;8.40;99.90;;;;;;5027597;28;20033;-74
2023/01/12 10:38:51;;;;;;;2.15;1.30;;;8.30;99.90;;;;;;5030228;28;20018;-73
2023/01/12 10:41:19;;;;;;;2.72;1.30;;;8.40;99.90;;;;;;5031503;28;20036;-74
2023/01/12 10:44:04;;;;;;;2.17;1.50;;;8.40;99.90;;;;;;5028699;28;20037;-73
2023/01/12 10:46:31;;;;;;;1.88;1.23;;;8.50;99.90;;;;;;5031418;28;20025;-74
2023/01/12 10:49:19;;;;;;;1.70;1.20;;;8.60;99.90;;;;;;5025912;28;20091;-74
2023/01/12 10:51:55;;;;;;;4.38;1.30;;;8.60;99.90;;;;;;5026793;28;20029;-74
2023/01/12 10:54:33;;;;;;;1.40;1.00;;;8.60;99.90;;;;;;5030129;28;20029;-74
2023/01/12 10:57:07;;;;;;;2.22;1.15;;;8.60;99.90;;;;;;5023116;28;20021;-74
2023/01/12 10:59:35;;;;;;;2.25;1.27;;;8.60;99.90;;;;;;5024902;28;20105;-74
2023/01/12 11:02:12;;;;;;;1.83;1.30;;;8.60;99.90;;;;;;5030233;28;20017;-74
2023/01/12 11:04:50;;;;;;;1.63;1.13;;;8.70;99.90;;;;;;5019372;28;20025;-74
2023/01/12 11:07:30;;;;;;;3.33;1.15;;;8.70;99.90;;;;;;5026411;28;20029;-73
2023/01/12 11:10:16;;;;;;;3.88;1.23;;;8.70;99.90;;;;;;5030114;28;20029;-76
2023/01/12 11:12:42;;;;;;;1.50;1.00;;;8.70;99.90;;;;;;5023258;28;20037;-76
2023/01/12 11:15:10;;;;;;;0.80;0.80;;;8.80;99.90;;;;;;5031412;28;20029;-74
2023/01/12 11:18:17;;;;;;;0.85;0.75;;;8.90;99.90;;;;;;5026325;28;20033;-74
2023/01/12 11:21:11;;;;;;;1.33;1.15;;;8.90;99.90;;;;;;5027944;28;20053;-75
2023/01/12 11:23:52;;;;;;;2.08;1.00;;;9.00;99.90;;;;;;5012747;28;20081;-74
2023/01/12 11:26:40;;;;;;;1.20;0.90;;;9.10;99.80;;;;;;5027861;28;20048;-74
2023/01/12 11:29:44;;;;;;;2.15;1.00;;;9.10;99.80;;;;;;5027939;28;20428;-74
2023/01/12 11:32:15;;;;;;;2.15;0.80;;;9.10;99.60;;;;;;5027005;28;20029;-75
2023/01/12 11:34:52;;;;;;;2.38;0.80;;;9.10;99.60;;;;;;5026148;28;20021;-75
2023/01/12 11:37:18;;;;;;;0.77;0.63;;;9.10;99.70;;;;;;5027193;28;20064;-75
2023/01/12 11:39:46;;;;;;;3.08;0.70;;;9.20;99.80;;;;;;5029052;28;20061;-76
2023/01/12 11:45:11;;;;;;;0.85;0.70;;;9.30;99.90;;;;;;5027668;28;20076;-75
2023/01/12 11:47:45;;;;;;;1.92;0.80;;;9.30;99.90;;;;;;5021070;28;20466;-76
2023/01/12 11:50:23;;;;;;;0.77;0.65;;;9.20;99.90;;;;;;5019544;28;20558;-76
2023/01/12 11:52:49;;;;;;;0.57;0.50;;;9.30;99.90;;;;;;5023757;28;20413;-76
2023/01/12 11:55:24;;;;;;;1.38;0.70;;;9.30;99.90;;;;;;5028124;28;20025;-76
2023/01/12 11:58:18;;;;;;;1.77;0.90;;;9.30;99.90;;;;;;5023039;28;20065;-75
2023/01/12 12:00:46;;;;;;;0.93;0.70;;;9.30;99.90;;;;;;5014625;28;20051;-75
2023/01/12 12:03:46;;;;;;;1.13;0.60;;;9.30;99.90;;;;;;5021067;28;20112;-75
2023/01/12 12:06:29;;;;;;;1.10;0.60;;;9.40;99.90;;;;;;5028253;28;20033;-75
2023/01/12 12:09:16;;;;;;;1.65;0.60;;;9.40;99.90;;;;;;5020152;28;20036;-75
2023/01/12 12:11:58;;;;;;;0.55;0.50;;;9.40;99.90;;;;;;5018717;28;20101;-74
2023/01/12 12:14:53;;;;;;;1.02;0.70;;;9.50;99.90;;;;;;5029649;28;20025;-75
2023/01/12 12:18:00;;;;;;;1.10;0.70;;;9.50;99.80;;;;;;5028805;28;20526;-75
2023/01/12 12:20:32;;;;;;;4.00;0.80;;;9.60;99.60;;;;;;5004379;28;20110;-75
2023/01/12 12:23:13;;;;;;;1.40;0.90;;;9.60;99.50;;;;;;5026014;28;20134;-74
2023/01/12 12:26:12;;;;;;;2.75;0.80;;;9.60;99.50;;;;;;5028594;28;20606;-74
2023/01/12 12:29:10;;;;;;;0.85;0.80;;;9.60;99.50;;;;;;5023859;28;20386;-75
2023/01/12 12:31:54;;;;;;;2.67;0.77;;;9.70;99.40;;;;;;5030661;28;20025;-75
2023/01/12 12:34:31;;;;;;;2.22;1.00;;;9.60;99.40;;;;;;5025546;28;20057;-75
2023/01/12 12:37:23;;;;;;;1.77;0.88;;;9.70;99.40;;;;;;5027173;28;20061;-75
2023/01/12 12:40:04;;;;;;;1.10;0.80;;;9.70;99.40;;;;;;5029571;28;20048;-75
2023/01/12 12:45:55;;;;;;;3.30;1.02;;;9.80;99.50;;;;;;5024984;28;20089;-75
2023/01/12 12:48:33;;;;;;;2.80;1.00;;;9.80;99.30;;;;;;5042469;28;20104;-74
2023/01/12 12:51:01;;;;;;;3.15;1.30;;;9.90;99.10;;;;;;5029688;28;20017;-75
2023/01/12 12:53:30;;;;;;;3.03;0.88;;;9.90;98.90;;;;;;5030383;28;20060;-74
2023/01/12 12:56:02;;;;;;;2.80;0.93;;;9.90;98.80;;;;;;5030882;28;20504;-74
2023/01/12 12:58:37;;;;;;;3.97;1.40;;;9.90;98.80;;;;;;5025773;28;20030;-75
2023/01/12 13:01:24;;;;;;;3.33;0.93;;;10.00;98.60;;;;;;5027072;28;20033;-74
2023/01/12 13:03:50;;;;;;;2.92;1.08;;;10.10;98.50;;;;;;5028820;28;20026;-75
2023/01/12 13:06:22;;;;;;;2.85;0.80;;;10.00;98.50;;;;;;5030784;28;20025;-75
2023/01/12 13:08:50;;;;;;;5.75;1.10;;;10.00;98.60;;;;;;5033218;28;20033;-74
2023/01/12 13:11:17;;;;;;;1.58;0.90;;;10.00;98.70;;;;;;5030531;28;20436;-75
2023/01/12 13:13:58;;;;;;;3.28;0.80;;;9.90;99.00;;;;;;5032337;28;20029;-75
2023/01/12 13:16:28;;;;;;;4.18;1.00;;;9.90;99.10;;;;;;5030572;28;20342;-75
2023/01/12 13:18:53;;;;;;;3.70;1.15;;;9.90;99.20;;;;;;5033011;28;20037;-74
2023/01/12 13:21:25;;;;;;;2.65;0.90;;;10.00;99.10;;;;;;5025548;28;20025;-75
2023/01/12 13:23:51;;;;;;;2.75;0.82;;;10.00;98.70;;;;;;5026142;28;20037;-75
2023/01/12 13:26:51;;;;;;;2.85;1.00;;;10.00;98.80;;;;;;5032039;28;20040;-75
2023/01/12 13:29:22;;;;;;;3.72;1.00;;;10.00;98.90;;;;;;5031573;28;20071;-75
2023/01/12 13:32:07;;;;;;;4.57;1.00;;;9.90;98.90;;;;;;5031449;28;20048;-75
2023/01/12 13:34:35;;;;;;;2.65;0.98;;;10.00;99.00;;;;;;5021743;28;20045;-74
2023/01/12 13:37:20;;;;;;;3.90;0.90;;;10.00;98.80;;;;;;5017177;28;20049;-75
2023/01/12 13:39:56;;;;;;;2.30;0.80;;;10.10;98.80;;;;;;5029309;28;20033;-75
2023/01/12 13:45:15;;;;;;;1.63;0.80;;;10.20;98.80;;;;;;5029948;28;20377;-75
2023/01/12 13:47:42;;;;;;;2.28;0.70;;;10.30;98.70;;;;;;5030191;28;20347;-75
2023/01/12 13:50:15;;;;;;;2.58;0.80;;;10.20;98.40;;;;;;5026186;28;20029;-75
2023/01/12 13:52:41;;;;;;;1.77;0.55;;;10.20;98.20;;;;;;5024623;28;20465;-75